Time;durP1;ratioP1;P1;durP2;ratioP2;P2;SDS_P1;SDS_P2;PMS_P1;PMS_P2;Temp;Humidity;BMP_temperature;BMP_pressure;BME280_temperature;BME280_humidity;BME280_pressure;Samples;Min_cycle;Max_cycle;Signal;HPM_P1;HPM_P2
2023/02/16 00:01:55;;;;;;;73.55;43.42;;;;;;;-2.80;100.00;96031.44;5022318;28;20036;-75
2023/02/16 00:04:25;;;;;;;70.30;42.03;;;;;;;-2.78;100.00;96024.59;5035827;28;20594;-75
2023/02/16 00:06:52;;;;;;;72.53;41.50;;;;;;;-3.01;100.00;96027.25;5022565;28;20037;-75
2023/02/16 00:09:18;;;;;;;77.43;43.63;;;;;;;-2.91;100.00;96028.50;5046736;28;20033;-75
2023/02/16 00:14:29;;;;;;;74.30;41.95;;;;;;;-2.96;100.00;96024.53;5051431;28;20098;-76
2023/02/16 00:16:56;;;;;;;69.85;41.85;;;;;;;-2.91;100.00;96033.56;5025945;28;20694;-76
2023/02/16 00:19:25;;;;;;;71.65;42.28;;;;;;;-3.05;100.00;96030.78;5035779;28;20404;-75
2023/02/16 00:21:53;;;;;;;74.68;41.65;;;;;;;-3.23;100.00;96027.28;5041302;28;20111;-75
2023/02/16 00:24:18;;;;;;;70.05;39.97;;;;;;;-3.14;100.00;96025.25;5051129;28;20422;-74
2023/02/16 00:26:44;;;;;;;67.28;39.55;;;;;;;-3.07;100.00;96031.72;5039696;28;20059;-75
2023/02/16 00:29:28;;;;;;;73.70;43.38;;;;;;;-3.17;100.00;96025.38;5041029;28;20354;-76
2023/02/16 00:31:55;;;;;;;69.45;41.97;;;;;;;-3.17;100.00;96027.91;5024840;28;20036;-75
2023/02/16 00:34:23;;;;;;;70.78;40.22;;;;;;;-3.07;100.00;96024.13;5055794;28;20029;-75
2023/02/16 00:36:48;;;;;;;74.10;43.10;;;;;;;-3.10;100.00;96030.16;5042571;28;20043;-75
2023/02/16 00:39:14;;;;;;;72.60;40.75;;;;;;;-3.14;100.00;96031.16;5054050;28;20037;-75
2023/02/16 00:41:52;;;;;;;69.03;40.85;;;;;;;-3.07;100.00;96026.66;5023813;28;20987;-76
2023/02/16 00:44:24;;;;;;;73.07;39.47;;;;;;;-3.07;100.00;96024.13;5038250;28;20036;-75
2023/02/16 00:46:49;;;;;;;68.07;40.78;;;;;;;-3.12;100.00;96013.38;5039143;28;20036;-75
2023/02/16 00:49:20;;;;;;;71.65;39.25;;;;;;;-3.11;100.00;96015.84;5038093;28;20029;-76
2023/02/16 00:51:47;;;;;;;74.07;41.10;;;;;;;-3.15;100.00;96016.03;5025958;28;20022;-75
2023/02/16 00:54:13;;;;;;;68.30;39.30;;;;;;;-3.18;100.00;96018.69;5017639;28;20417;-75
2023/02/16 00:56:39;;;;;;;71.35;39.72;;;;;;;-3.26;100.00;96016.47;5035994;28;20020;-75
2023/02/16 00:59:07;;;;;;;73.05;38.72;;;;;;;-3.27;100.00;96015.63;5033932;28;20263;-72
2023/02/16 01:01:33;;;;;;;70.55;40.40;;;;;;;-3.28;100.00;96013.19;5057967;28;20075;-75
2023/02/16 01:04:00;;;;;;;72.15;41.00;;;;;;;-3.27;100.00;96017.34;5051574;28;20041;-75
2023/02/16 01:12:00;;;;;;;74.78;41.00;;;;;;;-3.31;100.00;96015.84;5031396;28;20032;-75
2023/02/16 01:14:26;;;;;;;68.70;38.83;;;;;;;-3.29;100.00;96009.00;5051149;28;20151;-72
2023/02/16 01:16:51;;;;;;;71.10;40.55;;;;;;;-3.33;100.00;95995.63;5043568;28;20060;-75
2023/02/16 01:19:17;;;;;;;70.60;39.33;;;;;;;-3.30;100.00;96004.81;5040128;28;20037;-75
2023/02/16 01:21:43;;;;;;;71.40;40.88;;;;;;;-3.26;100.00;95997.03;5024736;28;20029;-76
2023/02/16 01:24:09;;;;;;;71.20;40.13;;;;;;;-3.27;100.00;95997.06;5041244;28;20029;-75
2023/02/16 01:26:38;;;;;;;69.78;40.38;;;;;;;-3.32;100.00;95991.41;5040501;28;20588;-75
2023/02/16 01:29:03;;;;;;;;;;;;;;;-3.27;100.00;95990.31;5057064;28;20044;-75
2023/02/16 01:31:29;;;;;;;73.00;39.75;;;;;;;-3.36;100.00;95990.69;5040282;28;19913;-76
2023/02/16 01:33:54;;;;;;;76.28;40.78;;;;;;;-3.35;100.00;95989.00;5055991;28;20037;-76
2023/02/16 01:36:24;;;;;;;73.15;41.20;;;;;;;-3.42;100.00;95990.09;5021787;28;20095;-76
2023/02/16 01:38:49;;;;;;;73.18;40.65;;;;;;;-3.47;100.00;95987.78;5040937;28;20056;-76
2023/02/16 01:41:37;;;;;;;78.40;41.35;;;;;;;-3.44;100.00;95986.81;5041647;28;20095;-76
2023/02/16 01:44:14;;;;;;;86.45;46.70;;;;;;;-3.49;100.00;95981.09;5030440;28;20491;-76
2023/02/16 01:46:45;;;;;;;97.80;50.60;;;;;;;-3.46;100.00;95986.88;5038389;28;20489;-76
2023/02/16 01:49:13;;;;;;;99.88;51.65;;;;;;;-3.45;100.00;95980.94;5030400;28;20039;-76
2023/02/16 01:52:20;;;;;;;87.25;47.60;;;;;;;-3.53;100.00;95985.47;5038734;28;20084;-76
2023/02/16 01:54:58;;;;;;;83.30;43.50;;;;;;;-3.63;100.00;95980.84;5026315;28;20076;-76
2023/02/16 01:58:10;;;;;;;73.00;41.72;;;;;;;-3.64;100.00;95985.09;5018364;28;20080;-77
2023/02/16 02:00:48;;;;;;;70.20;39.63;;;;;;;-3.58;100.00;95979.78;5005146;28;20041;-76
2023/02/16 02:06:15;;;;;;;71.22;39.15;;;;;;;-3.63;100.00;95980.84;5036628;28;20040;-76
2023/02/16 02:09:02;;;;;;;76.15;40.95;;;;;;;-3.58;100.00;95979.78;5036917;28;20032;-76
2023/02/16 02:11:49;;;;;;;66.85;37.00;;;;;;;-3.69;100.00;95970.97;5039987;28;20410;-76
2023/02/16 02:14:16;;;;;;;67.85;36.78;;;;;;;-3.59;100.00;95979.81;5032724;28;20039;-76
2023/02/16 02:16:55;;;;;;;92.53;51.30;;;;;;;-3.61;100.00;95979.91;5040963;28;20024;-76
2023/02/16 02:19:20;;;;;;;164.55;91.53;;;;;;;-3.57;100.00;95976.38;5030687;28;20052;-75
2023/02/16 02:25:09;;;;;;;137.20;78.05;;;;;;;-3.65;100.00;95975.00;5032835;28;20094;-76
2023/02/16 02:27:38;;;;;;;91.82;54.13;;;;;;;-3.70;100.00;95974.38;5038825;28;20040;-76
2023/02/16 02:30:18;;;;;;;89.33;50.83;;;;;;;-3.76;100.00;95975.44;5036928;28;20075;-75
2023/02/16 02:33:29;;;;;;;81.10;45.45;;;;;;;-3.79;100.00;95968.78;5037495;28;20043;-75
2023/02/16 02:36:08;;;;;;;79.70;44.38;;;;;;;-3.68;100.00;95965.84;5030520;28;20048;-75
2023/02/16 02:38:49;;;;;;;82.00;45.27;;;;;;;-3.75;100.00;95969.47;5053380;28;20039;-75
2023/02/16 02:42:02;;;;;;;74.03;43.63;;;;;;;-3.77;100.00;95967.03;5037850;28;20032;-75
2023/02/16 02:44:12;;;;;;;69.25;39.70;;;;;;;-3.67;100.00;96220.50;5034714;28;20084;-76
2023/02/16 02:46:37;;;;;;;67.40;38.10;;;;;;;-3.60;100.00;96223.66;5003877;28;20029;-75
2023/02/16 02:49:03;;;;;;;72.55;39.50;;;;;;;-3.75;100.00;96218.22;5034997;28;20518;-75
2023/02/16 02:51:28;;;;;;;67.10;38.08;;;;;;;-3.78;100.00;96205.69;5032948;28;20446;-76
2023/02/16 03:02:15;;;;;;;64.85;38.30;;;;;;;-3.89;100.00;96212.84;5046109;28;20414;-76
2023/02/16 03:04:41;;;;;;;71.70;40.05;;;;;;;-3.95;100.00;96222.34;5047758;28;20218;-75
2023/02/16 03:07:07;;;;;;;65.53;38.72;;;;;;;-3.96;100.00;96211.41;5018513;28;20227;-76
2023/02/16 03:09:32;;;;;;;65.32;37.97;;;;;;;-3.91;100.00;96217.13;5046829;28;20498;-76
2023/02/16 03:14:48;;;;;;;73.93;41.95;;;;;;;-3.81;100.00;96205.81;5046832;28;20051;-75
2023/02/16 03:31:05;;;;;;;71.18;40.90;;;;;;;-4.05;100.00;96185.59;5041258;28;20616;-75
2023/02/16 03:33:31;;;;;;;68.13;39.70;;;;;;;-4.05;100.00;96183.91;5055685;28;20021;-75
2023/02/16 03:35:57;;;;;;;74.80;39.35;;;;;;;-4.04;100.00;96187.22;5055566;28;20421;-75
2023/02/16 03:38:22;;;;;;;67.28;37.15;;;;;;;-3.97;100.00;96183.63;5039368;28;20123;-75
2023/02/16 03:40:49;;;;;;;69.50;40.58;;;;;;;-3.97;100.00;96191.22;5038053;28;20112;-76
2023/02/16 03:43:14;;;;;;;67.45;37.92;;;;;;;-4.02;100.00;96188.03;5022800;28;20098;-75
2023/02/16 03:45:41;;;;;;;68.80;38.47;;;;;;;-4.05;100.00;96191.50;5054498;28;20037;-75
2023/02/16 03:48:07;;;;;;;65.97;37.72;;;;;;;-4.05;100.00;96185.59;5039446;28;20025;-75
2023/02/16 03:50:32;;;;;;;61.97;36.08;;;;;;;-4.11;100.00;96195.94;5039650;28;20025;-74
2023/02/16 03:53:07;;;;;;;61.75;35.13;;;;;;;-4.07;100.00;96203.34;5038757;28;20033;-72
2023/02/16 03:55:52;;;;;;;67.88;36.75;;;;;;;-4.18;100.00;96200.38;5039288;28;20055;-75
2023/02/16 03:58:20;;;;;;;62.90;35.88;;;;;;;-4.28;100.00;96191.44;5025500;28;20049;-75
2023/02/16 04:00:46;;;;;;;60.47;34.03;;;;;;;-4.21;100.00;96203.00;5039344;28;20043;-75
2023/02/16 04:03:12;;;;;;;61.67;35.72;;;;;;;-4.28;100.00;96194.78;5038041;28;20025;-75
2023/02/16 04:05:37;;;;;;;57.47;32.53;;;;;;;-4.18;100.00;96195.31;5056122;28;20021;-75
2023/02/16 04:08:05;;;;;;;58.35;33.33;;;;;;;-4.19;100.00;96191.13;5039604;28;20505;-75
2023/02/16 04:10:30;;;;;;;69.70;38.25;;;;;;;-4.19;100.00;96196.19;5055515;28;20486;-75
2023/02/16 04:12:56;;;;;;;67.65;35.40;;;;;;;-4.27;100.00;96185.50;5038850;28;20085;-75
2023/02/16 04:15:25;;;;;;;76.65;39.38;;;;;;;-4.24;100.00;96182.06;5039590;28;20017;-75
2023/02/16 04:17:50;;;;;;;66.55;37.03;;;;;;;-4.32;100.00;96182.28;5039091;28;20025;-75
2023/02/16 04:20:22;;;;;;;66.25;35.22;;;;;;;-4.28;100.00;96189.75;5037979;28;20406;-75
2023/02/16 04:22:47;;;;;;;61.63;33.65;;;;;;;-4.31;100.00;96184.78;5022318;28;20025;-75
2023/02/16 04:25:14;;;;;;;60.10;34.15;;;;;;;-4.34;100.00;96184.06;5054845;28;20036;-74
2023/02/16 04:27:40;;;;;;;81.75;45.90;;;;;;;-4.31;100.00;96187.31;5055265;28;20036;-75
2023/02/16 04:30:08;;;;;;;68.53;38.75;;;;;;;-4.38;100.00;96187.56;5038716;28;20581;-75
2023/02/16 04:32:33;;;;;;;66.15;35.10;;;;;;;-4.47;100.00;96182.81;5037578;28;20123;-74
2023/02/16 04:34:59;;;;;;;61.78;35.50;;;;;;;-4.50;100.00;96180.38;5041178;28;20589;-75
2023/02/16 04:37:24;;;;;;;60.65;35.97;;;;;;;-4.44;100.00;96180.19;5054039;28;20601;-75
2023/02/16 04:39:50;;;;;;;63.47;35.50;;;;;;;-4.44;100.00;96183.53;5038940;28;20025;-75
2023/02/16 04:42:15;;;;;;;64.05;34.78;;;;;;;-4.45;100.00;96184.41;5054129;28;20150;-75
2023/02/16 04:44:42;;;;;;;59.15;33.45;;;;;;;-4.37;100.00;96186.69;5055706;28;20025;-75
2023/02/16 04:47:07;;;;;;;62.88;33.85;;;;;;;-4.41;100.00;96185.13;5038230;28;20490;-75
2023/02/16 04:49:32;;;;;;;60.10;33.30;;;;;;;-4.48;100.00;96183.69;5037961;28;20078;-74
2023/02/16 04:51:59;;;;;;;63.45;33.30;;;;;;;-4.46;100.00;96184.44;5038388;28;20112;-76
2023/02/16 04:54:25;;;;;;;68.32;35.45;;;;;;;-4.59;100.00;96183.22;5054078;28;20032;-76
2023/02/16 04:56:52;;;;;;;65.57;34.83;;;;;;;-4.46;100.00;96187.78;5039139;28;20021;-75
2023/02/16 04:59:17;;;;;;;76.60;39.88;;;;;;;-4.53;100.00;96190.59;5035594;28;20051;-75
2023/02/16 05:01:43;;;;;;;75.43;39.80;;;;;;;-4.61;100.00;96188.31;5042656;28;20025;-76
2023/02/16 05:06:43;;;;;;;81.38;43.45;;;;;;;-4.65;100.00;96185.91;5007723;23;20101;-75
2023/02/16 05:09:09;;;;;;;74.65;38.60;;;;;;;-4.56;100.00;96193.22;4961429;28;20550;-74
2023/02/16 05:14:41;;;;;;;60.00;34.20;;;;;;;-4.63;100.00;96210.28;4973894;28;20080;-74
2023/02/16 05:17:11;;;;;;;60.15;33.63;;;;;;;-4.67;100.00;96201.13;4949473;28;20027;-74
2023/02/16 05:19:36;;;;;;;64.57;36.53;;;;;;;-4.63;100.00;96206.91;4965356;28;20423;-74
2023/02/16 05:22:02;;;;;;;77.25;43.20;;;;;;;-4.64;100.00;96206.09;4954865;28;20027;-75
2023/02/16 05:24:28;;;;;;;107.35;63.28;;;;;;;-4.55;100.00;96204.97;4965224;28;20495;-74
2023/02/16 05:26:53;;;;;;;141.98;87.43;;;;;;;-4.51;100.00;96204.00;4954953;28;20042;-75
2023/02/16 05:29:18;;;;;;;104.35;65.32;;;;;;;-4.42;100.00;96207.03;4963197;28;20089;-75
2023/02/16 05:31:44;;;;;;;76.03;44.78;;;;;;;-4.39;100.00;96203.59;4954295;28;20039;-74
2023/02/16 05:34:10;;;;;;;75.70;46.53;;;;;;;-4.31;100.00;96204.19;4951186;28;20019;-74
2023/02/16 05:36:35;;;;;;;80.47;48.25;;;;;;;-4.34;100.00;96205.09;4947895;28;20045;-74
2023/02/16 05:39:01;;;;;;;67.18;39.58;;;;;;;-4.29;100.00;96199.88;4963149;28;20031;-75
2023/02/16 05:41:26;;;;;;;68.72;38.17;;;;;;;-4.51;100.00;96192.19;4964047;28;20085;-74
2023/02/16 05:43:54;;;;;;;73.10;40.85;;;;;;;-4.19;100.00;96200.41;4963643;28;20148;-74
2023/02/16 05:46:23;;;;;;;72.38;40.58;;;;;;;-3.99;100.00;96191.28;4963623;28;20601;-74
2023/02/16 05:48:50;;;;;;;66.00;38.95;;;;;;;-3.93;100.00;96175.88;4947649;28;20058;-74
2023/02/16 05:51:15;;;;;;;72.80;41.53;;;;;;;-3.63;100.00;96168.09;4962883;28;20027;-74
2023/02/16 05:53:41;;;;;;;190.80;88.93;;;;;;;-2.62;100.00;96153.19;4947568;28;20031;-75
2023/02/16 05:56:06;;;;;;;92.57;53.60;;;;;;;-1.39;100.00;96098.75;4964113;28;20495;-74
2023/02/16 05:58:32;;;;;;;79.43;49.08;;;;;;;-1.10;100.00;95998.31;4964204;28;20046;-75
2023/02/16 06:00:57;;;;;;;55.50;33.45;;;;;;;-1.65;100.00;95995.84;4944777;28;20496;-75
2023/02/16 06:03:23;;;;;;;60.15;39.38;;;;;;;-1.67;100.00;95981.59;4946984;28;20042;-75
2023/02/16 06:05:58;;;;;;;68.22;41.08;;;;;;;-2.33;100.00;95981.22;4946630;28;20082;-75
2023/02/16 06:08:24;;;;;;;62.45;38.05;;;;;;;-2.27;100.00;95992.81;4961311;28;20853;-75
2023/02/16 06:10:51;;;;;;;65.15;37.58;;;;;;;-1.43;100.00;95988.03;4962542;28;20031;-75
2023/02/16 06:13:16;;;;;;;57.55;36.03;;;;;;;0.52;100.00;95982.97;4965796;28;20054;-75
2023/02/16 06:15:42;;;;;;;58.83;37.05;;;;;;;1.99;97.53;95976.88;4971940;28;20061;-75
2023/02/16 06:18:10;;;;;;;55.17;35.35;;;;;;;1.58;94.89;95981.94;4961988;28;20046;-75
2023/02/16 06:20:36;;;;;;;62.08;38.80;;;;;;;1.61;95.54;95986.03;4962282;28;20118;-76
2023/02/16 06:23:01;;;;;;;96.28;53.42;;;;;;;1.30;96.49;95981.91;4947746;28;20109;-76
2023/02/16 06:25:27;;;;;;;65.28;40.65;;;;;;;1.00;98.87;95994.69;4962511;28;20400;-76
2023/02/16 06:27:52;;;;;;;66.15;39.20;;;;;;;1.64;99.28;95988.41;4964017;28;20480;-76
2023/02/16 06:30:18;;;;;;;60.75;37.50;;;;;;;2.00;95.50;95987.94;4963155;28;20034;-77
2023/02/16 06:32:43;;;;;;;63.83;36.05;;;;;;;1.45;97.69;95987.84;4965711;28;20465;-76
2023/02/16 06:35:09;;;;;;;72.88;43.30;;;;;;;2.54;93.44;95993.91;4961830;28;20495;-76
2023/02/16 06:37:34;;;;;;;52.03;35.33;;;;;;;2.59;92.44;95995.28;4962958;28;20162;-76
2023/02/16 06:39:59;;;;;;;52.80;35.97;;;;;;;2.26;93.14;95999.94;4962413;28;20416;-76
2023/02/16 06:42:25;;;;;;;73.15;46.83;;;;;;;2.83;92.53;96000.56;4964874;28;20436;-76
2023/02/16 06:44:50;;;;;;;61.72;44.80;;;;;;;3.09;92.00;96001.44;4946824;28;20031;-77
2023/02/16 06:47:16;;;;;;;58.15;41.92;;;;;;;4.35;87.68;96005.72;4964761;28;20023;-77
2023/02/16 06:49:41;;;;;;;63.72;46.50;;;;;;;4.62;84.42;96012.28;4973352;28;20103;-77
2023/02/16 06:52:07;;;;;;;74.18;52.35;;;;;;;4.71;84.99;96013.41;4979488;28;20026;-76
2023/02/16 06:54:32;;;;;;;54.20;42.47;;;;;;;5.20;80.97;96015.84;4965528;28;20033;-76
2023/02/16 06:56:57;;;;;;;47.80;37.92;;;;;;;5.34;81.86;96015.63;4980838;28;20030;-76
2023/02/16 06:59:23;;;;;;;56.40;42.28;;;;;;;6.47;77.97;96013.88;4981480;28;20499;-76
2023/02/16 07:01:48;;;;;;;56.08;41.63;;;;;;;8.29;60.50;96011.81;4977713;28;20081;-77
2023/02/16 07:04:14;;;;;;;55.92;43.03;;;;;;;9.75;54.68;96005.69;4962112;28;20022;-75
2023/02/16 07:06:40;;;;;;;50.72;43.00;;;;;;;11.03;51.44;96004.84;4977755;28;20511;-75
2023/02/16 07:09:05;;;;;;;45.17;38.25;;;;;;;11.51;48.90;96004.47;4972895;28;20033;-77
2023/02/16 07:11:30;;;;;;;44.92;38.95;;;;;;;11.71;48.38;96000.78;4961370;28;20015;-77
2023/02/16 07:13:56;;;;;;;40.78;36.40;;;;;;;12.14;47.62;96003.31;4943740;28;20033;-77
2023/02/16 07:16:22;;;;;;;42.15;37.75;;;;;;;10.51;50.27;95990.84;4959267;28;20154;-76
2023/02/16 07:18:47;;;;;;;44.67;36.80;;;;;;;10.68;51.96;95997.03;4951154;28;20100;-76
2023/02/16 07:21:13;;;;;;;38.20;34.13;;;;;;;12.01;47.80;95997.72;4963579;28;20121;-76
2023/02/16 07:23:38;;;;;;;41.42;36.55;;;;;;;12.11;47.42;95993.22;4958085;28;20266;-76
2023/02/16 07:26:04;;;;;;;38.95;34.78;;;;;;;10.78;51.02;95998.63;4958901;28;20023;-76
2023/02/16 07:28:30;;;;;;;39.70;35.60;;;;;;;11.59;48.58;95994.16;4959317;28;20097;-76
2023/02/16 07:30:55;;;;;;;41.13;36.78;;;;;;;10.15;50.38;96000.28;4952842;28;20035;-76
2023/02/16 07:33:21;;;;;;;42.03;37.25;;;;;;;11.06;48.79;95987.22;4955852;28;20034;-75
2023/02/16 07:35:46;;;;;;;43.00;37.10;;;;;;;10.46;50.65;95986.13;4977631;28;20582;-76
2023/02/16 07:38:12;;;;;;;43.90;36.22;;;;;;;12.11;48.41;95989.81;4980095;28;20031;-76
2023/02/16 07:40:37;;;;;;;43.92;38.10;;;;;;;11.67;48.19;95978.66;4975732;28;20385;-76
2023/02/16 07:43:04;;;;;;;48.50;40.92;;;;;;;9.90;52.09;95977.59;4949558;28;20031;-76
2023/02/16 07:45:33;;;;;;;45.10;38.67;;;;;;;11.41;49.80;95977.81;4963821;28;20154;-76
2023/02/16 07:48:00;;;;;;;46.10;40.03;;;;;;;8.80;58.00;95983.25;4960492;28;20493;-76
2023/02/16 07:50:25;;;;;;;49.67;41.75;;;;;;;7.67;65.31;95981.78;4958931;28;20062;-75
2023/02/16 07:52:51;;;;;;;48.72;40.28;;;;;;;7.60;66.49;95983.22;4971593;28;20152;-76
2023/02/16 07:55:16;;;;;;;49.60;40.63;;;;;;;7.87;65.48;95983.50;4963972;28;20654;-75
2023/02/16 07:57:42;;;;;;;55.15;44.08;;;;;;;7.09;67.97;95979.75;4953297;28;20515;-75
2023/02/16 08:00:09;;;;;;;48.17;40.45;;;;;;;7.88;68.00;95981.75;4953110;28;20030;-76
2023/02/16 08:02:34;;;;;;;52.45;41.70;;;;;;;7.35;66.96;95981.84;4947387;28;20579;-75
2023/02/16 08:05:00;;;;;;;53.83;42.65;;;;;;;8.66;62.53;95981.09;4956201;28;20182;-76
2023/02/16 08:07:27;;;;;;;49.28;41.13;;;;;;;11.35;53.02;95968.03;4953127;28;20042;-75
2023/02/16 08:09:52;;;;;;;50.40;42.40;;;;;;;13.85;46.82;95968.06;4953699;28;20045;-76
2023/02/16 08:12:18;;;;;;;50.75;42.90;;;;;;;14.80;44.27;95965.34;4947923;28;20027;-76
2023/02/16 08:14:47;;;;;;;48.80;42.17;;;;;;;14.78;43.74;95968.09;4952590;28;20030;-77
2023/02/16 08:17:13;;;;;;;48.60;42.53;;;;;;;15.58;42.03;95965.94;4958734;28;20069;-76
2023/02/16 08:19:39;;;;;;;48.00;42.85;;;;;;;15.00;43.29;95963.06;4970704;28;20081;-76
2023/02/16 08:22:05;;;;;;;46.03;41.20;;;;;;;14.75;43.61;95965.03;4959254;28;20039;-77
2023/02/16 08:36:46;;;;;;;44.42;39.63;;;;;;;15.41;41.64;95968.84;5118514;27;20409;-75
2023/02/16 08:39:16;;;;;;;42.63;38.30;;;;;;;15.55;42.09;95966.28;5109547;28;20120;-77
2023/02/16 08:41:44;;;;;;;39.70;35.63;;;;;;;15.57;41.68;95971.38;5116136;28;20129;-76
2023/02/16 08:44:10;;;;;;;39.67;35.70;;;;;;;15.82;41.00;95975.38;5117451;28;20027;-76
2023/02/16 08:46:38;;;;;;;35.50;31.77;;;;;;;15.96;39.70;95969.34;5115444;28;20106;-76
2023/02/16 08:49:04;;;;;;;35.53;31.70;;;;;;;16.53;39.13;95973.97;5112549;28;20046;-76
2023/02/16 08:51:33;;;;;;;33.78;30.20;;;;;;;15.69;39.36;95957.69;5116159;28;20054;-75
2023/02/16 08:53:59;;;;;;;33.80;30.45;;;;;;;15.18;41.71;95966.25;5116702;28;20039;-76
2023/02/16 08:56:25;;;;;;;31.30;28.30;;;;;;;14.95;41.36;95962.78;5116399;28;20023;-76
2023/02/16 08:58:51;;;;;;;31.73;28.63;;;;;;;15.58;40.97;95972.97;5116002;28;20020;-76
2023/02/16 09:01:17;;;;;;;32.15;29.05;;;;;;;14.89;42.13;95971.31;5111165;28;20386;-77
2023/02/16 09:03:44;;;;;;;35.08;31.38;;;;;;;14.10;43.95;95972.25;5115384;28;20086;-76
2023/02/16 09:06:11;;;;;;;34.08;30.67;;;;;;;15.84;41.16;95976.00;5116813;28;20095;-77
2023/02/16 09:08:37;;;;;;;33.08;29.67;;;;;;;16.76;39.61;95969.47;5115466;28;20114;-76
2023/02/16 09:11:13;;;;;;;34.05;30.70;;;;;;;17.05;38.51;95966.75;5099740;28;20102;-75
2023/02/16 09:13:39;;;;;;;32.08;28.85;;;;;;;14.78;42.30;95964.69;5098282;28;20088;-77
2023/02/16 09:16:11;;;;;;;32.13;28.73;;;;;;;15.76;42.30;95961.19;5098811;28;20024;-77
2023/02/16 09:18:39;;;;;;;32.15;28.92;;;;;;;16.06;41.05;95959.44;5116521;28;20092;-77
2023/02/16 09:21:09;;;;;;;32.50;29.20;;;;;;;16.03;40.63;95962.41;5100708;28;20349;-77
2023/02/16 09:23:38;;;;;;;31.73;28.63;;;;;;;14.65;43.56;95965.22;5088824;28;20422;-76
2023/02/16 09:26:08;;;;;;;31.65;28.60;;;;;;;15.77;41.78;95959.41;5089278;28;20036;-77
2023/02/16 09:28:36;;;;;;;33.20;29.98;;;;;;;16.74;39.51;95960.97;5096981;28;20047;-76
2023/02/16 09:31:11;;;;;;;32.92;29.60;;;;;;;16.23;40.63;95953.06;5095045;28;20173;-79
2023/02/16 09:33:37;;;;;;;30.95;27.98;;;;;;;16.92;39.61;95950.13;5098955;28;20352;-77
2023/02/16 09:36:05;;;;;;;32.10;28.80;;;;;;;15.81;41.60;95951.06;5091010;28;20458;-77
2023/02/16 09:38:31;;;;;;;31.48;28.25;;;;;;;16.09;40.15;95946.03;5063592;28;20486;-78
2023/02/16 09:40:59;;;;;;;29.85;27.05;;;;;;;16.12;40.65;95944.84;5082843;28;20107;-79
2023/02/16 09:43:45;;;;;;;34.25;30.85;;;;;;;16.20;40.68;95936.91;5081228;28;20502;-77
2023/02/16 09:46:12;;;;;;;33.38;30.13;;;;;;;16.27;40.64;95943.06;5083000;28;20811;-77
2023/02/16 09:48:44;;;;;;;32.60;29.35;;;;;;;16.19;40.61;95935.28;5083606;28;20035;-78
2023/02/16 09:51:34;;;;;;;34.50;31.00;;;;;;;16.48;41.17;95935.28;5083825;28;20037;-78
2023/02/16 09:54:34;;;;;;;33.60;30.38;;;;;;;16.69;41.48;95932.75;5099284;28;20046;-78
2023/02/16 09:57:30;;;;;;;35.67;32.08;;;;;;;17.15;39.51;95922.75;5056080;28;20043;-77
2023/02/16 10:00:03;;;;;;;35.97;32.38;;;;;;;16.53;40.29;95921.66;5100484;28;20031;-77
2023/02/16 10:02:34;;;;;;;35.55;32.22;;;;;;;16.32;42.30;95919.78;5084945;28;20093;-78
2023/02/16 10:05:11;;;;;;;34.20;31.08;;;;;;;16.13;42.00;95915.91;5101813;28;21041;-78
2023/02/16 10:07:45;;;;;;;33.40;30.13;;;;;;;16.45;41.17;95924.38;5081113;28;20035;-77
2023/02/16 10:10:18;;;;;;;31.52;28.33;;;;;;;16.65;40.82;95909.75;5082783;28;20056;-77
2023/02/16 10:12:51;;;;;;;32.13;28.90;;;;;;;17.10;39.78;95913.84;5080465;28;20019;-78
2023/02/16 10:15:21;;;;;;;32.33;29.30;;;;;;;16.48;40.78;95908.31;5081711;28;20051;-77
2023/02/16 10:18:07;;;;;;;31.63;28.50;;;;;;;16.78;40.39;95899.44;5080964;28;20038;-77
2023/02/16 10:20:36;;;;;;;28.02;25.20;;;;;;;17.44;38.86;95900.84;5098977;28;20035;-77
2023/02/16 10:23:32;;;;;;;29.90;27.15;;;;;;;17.06;39.51;95896.88;5100549;28;20099;-77
2023/02/16 10:26:21;;;;;;;26.90;24.27;;;;;;;16.56;39.31;95895.97;5101124;28;20035;-76
2023/02/16 10:28:46;;;;;;;;;;;;;;;17.94;38.96;95893.78;5101472;28;20024;-77
2023/02/16 10:31:18;;;;;;;28.67;25.77;;;;;;;13.47;43.92;95896.69;5079562;28;19973;-77
2023/02/16 10:34:05;;;;;;;29.70;26.50;;;;;;;11.23;50.09;95897.44;5088712;28;20038;-76
2023/02/16 10:36:50;;;;;;;31.92;28.63;;;;;;;12.20;51.31;95897.97;5056741;28;20139;-76
2023/02/16 10:39:26;;;;;;;29.98;25.95;;;;;;;12.18;50.98;95897.34;5071972;28;20075;-77
2023/02/16 10:42:28;;;;;;;28.58;24.75;;;;;;;12.28;50.90;95887.63;5076221;28;20028;-77
2023/02/16 10:44:59;;;;;;;28.95;25.70;;;;;;;12.21;51.11;95893.59;5095727;28;20036;-77
2023/02/16 10:47:37;;;;;;;27.23;23.65;;;;;;;12.45;49.68;95885.91;5083254;28;20087;-77
2023/02/16 10:50:04;;;;;;;32.63;26.23;;;;;;;12.28;51.32;95885.03;5081826;28;20036;-76
2023/02/16 10:52:39;;;;;;;25.55;22.83;;;;;;;12.00;50.31;95887.06;5070245;28;20501;-76
2023/02/16 10:55:05;;;;;;;26.38;23.52;;;;;;;12.01;49.68;95880.88;5085618;28;20039;-76
2023/02/16 10:57:32;;;;;;;28.42;24.95;;;;;;;12.00;50.96;95874.06;5092105;28;20032;-76
2023/02/16 11:00:01;;;;;;;29.50;25.10;;;;;;;11.71;50.00;95878.00;5083247;28;20028;-76
2023/02/16 11:02:38;;;;;;;29.90;25.52;;;;;;;11.39;52.11;95871.63;5080165;28;20027;-76
2023/02/16 11:05:26;;;;;;;32.88;26.52;;;;;;;11.34;53.61;95873.84;5082007;28;20124;-77
2023/02/16 11:07:56;;;;;;;34.47;27.83;;;;;;;11.27;54.31;95874.63;5082654;28;20039;-76
2023/02/16 11:10:38;;;;;;;38.30;29.50;;;;;;;11.13;55.33;95864.78;5080726;28;20020;-76
2023/02/16 11:13:04;;;;;;;35.70;27.33;;;;;;;11.30;55.47;95862.13;5081718;28;20314;-76
2023/02/16 11:15:30;;;;;;;34.92;28.40;;;;;;;11.10;55.18;95856.38;5083475;28;20492;-76
2023/02/16 11:17:58;;;;;;;34.22;28.13;;;;;;;10.63;54.99;95847.22;5082189;28;20027;-76
2023/02/16 11:20:31;;;;;;;34.67;29.23;;;;;;;10.89;55.82;95852.44;5081908;28;20453;-76
2023/02/16 11:23:16;;;;;;;33.40;27.30;;;;;;;10.98;55.74;95851.56;5093075;28;20020;-76
2023/02/16 11:26:02;;;;;;;23.90;21.30;;;;;;;10.85;53.03;95851.16;5074983;28;20032;-76
2023/02/16 11:28:41;;;;;;;26.63;21.67;;;;;;;10.77;53.48;95844.09;5058387;28;20032;-76
2023/02/16 11:31:10;;;;;;;28.30;22.55;;;;;;;10.81;52.23;95842.84;5082410;28;20480;-76
2023/02/16 11:33:36;;;;;;;26.33;21.27;;;;;;;10.68;53.47;95833.81;5090760;28;20027;-76
2023/02/16 11:36:04;;;;;;;27.45;22.65;;;;;;;10.25;53.87;95829.38;5095462;28;20077;-78
2023/02/16 11:38:32;;;;;;;25.02;19.73;;;;;;;10.26;51.52;95824.06;5084880;28;20031;-76
2023/02/16 11:40:58;;;;;;;28.08;21.13;;;;;;;10.61;52.11;95825.84;5096167;28;20034;-76
2023/02/16 11:43:30;;;;;;;25.35;19.42;;;;;;;10.66;51.45;95825.41;5083630;28;20085;-76
2023/02/16 11:46:12;;;;;;;23.27;18.80;;;;;;;10.66;51.74;95828.78;5081291;28;20039;-76
2023/02/16 11:48:38;;;;;;;26.55;21.15;;;;;;;10.49;53.28;95825.25;5081472;28;20600;-76
2023/02/16 11:51:06;;;;;;;24.20;19.80;;;;;;;10.67;50.90;95825.25;5065227;28;20575;-76
2023/02/16 11:53:33;;;;;;;28.05;23.27;;;;;;;9.66;53.90;95824.66;5079950;28;20020;-76
2023/02/16 11:56:26;;;;;;;30.35;24.50;;;;;;;9.58;54.94;95814.22;5082228;28;20205;-76
2023/02/16 11:59:04;;;;;;;32.33;24.42;;;;;;;9.56;54.54;95810.97;5080812;28;20023;-76
2023/02/16 12:01:46;;;;;;;30.17;23.05;;;;;;;10.16;54.67;95814.72;5084083;28;20397;-77
2023/02/16 12:04:49;;;;;;;30.23;22.75;;;;;;;9.08;54.58;95803.38;5045374;28;20115;-77
2023/02/16 12:07:32;;;;;;;31.17;22.90;;;;;;;9.77;54.79;95798.59;5081609;28;20038;-77
2023/02/16 12:10:23;;;;;;;27.20;22.92;;;;;;;9.51;53.57;95793.28;5081810;28;20028;-77
2023/02/16 12:12:56;;;;;;;26.67;21.05;;;;;;;9.94;52.95;95788.28;5072433;28;20040;-77
2023/02/16 12:15:55;;;;;;;30.38;21.85;;;;;;;10.49;53.84;95790.78;5081450;28;20032;-77
2023/02/16 12:18:30;;;;;;;26.73;21.08;;;;;;;10.36;52.63;95782.56;5081423;28;20024;-77
2023/02/16 12:21:28;;;;;;;24.38;19.38;;;;;;;9.74;53.15;95784.19;5081082;28;20202;-77
2023/02/16 12:24:19;;;;;;;23.02;17.92;;;;;;;9.89;51.75;95774.97;5059522;28;20047;-77
2023/02/16 12:26:50;;;;;;;16.73;14.82;;;;;;;10.04;50.76;95776.09;5062028;28;20621;-76